createdAt,value
2023-01-19T00:00:53.694Z,7.45
2023-01-19T00:03:27.594Z,11.10
2023-01-19T00:05:54.508Z,8.68
2023-01-19T00:08:21.633Z,13.07
2023-01-19T00:10:51.352Z,10.38
2023-01-19T00:13:18.886Z,16.88
2023-01-19T00:15:45.746Z,14.15
2023-01-19T00:18:12.883Z,14.40
2023-01-19T00:20:40.493Z,16.15
2023-01-19T00:23:08.258Z,15.57
2023-01-19T00:25:35.887Z,16.85
2023-01-19T00:28:03.215Z,17.27
2023-01-19T00:30:30.169Z,13.85
2023-01-19T00:32:57.244Z,13.05
2023-01-19T00:35:24.147Z,14.45
2023-01-19T00:37:51.228Z,15.60
2023-01-19T00:40:18.492Z,12.38
2023-01-19T00:42:45.990Z,13.63
2023-01-19T00:45:15.381Z,12.60
2023-01-19T00:47:42.703Z,13.13
2023-01-19T00:50:14.399Z,14.93
2023-01-19T00:52:42.123Z,13.70
2023-01-19T00:55:11.394Z,10.57
2023-01-19T00:57:39.581Z,12.93
2023-01-19T01:00:12.117Z,13.63
2023-01-19T01:02:40.665Z,16.50
2023-01-19T01:05:08.670Z,15.43
2023-01-19T01:07:44.663Z,17.63
2023-01-19T01:10:12.836Z,13.23
2023-01-19T01:12:40.247Z,10.38
2023-01-19T01:15:09.334Z,15.10
2023-01-19T01:17:36.785Z,10.40
2023-01-19T01:20:04.892Z,9.52
2023-01-19T01:22:31.957Z,10.63
2023-01-19T01:24:58.724Z,11.45
2023-01-19T01:27:25.781Z,11.10
2023-01-19T01:29:52.552Z,12.32
2023-01-19T01:32:19.645Z,10.80
2023-01-19T01:34:46.436Z,11.23
2023-01-19T01:37:13.474Z,9.15
2023-01-19T01:39:40.240Z,8.75
2023-01-19T01:42:17.794Z,9.70
2023-01-19T01:44:52.180Z,6.43
2023-01-19T01:47:42.284Z,10.07
2023-01-19T01:50:20.529Z,8.35
2023-01-19T01:53:07.275Z,9.32
2023-01-19T01:55:40.233Z,9.50
2023-01-19T01:58:10.090Z,10.50
2023-01-19T02:00:57.761Z,7.25
2023-01-19T02:03:26.825Z,8.38
2023-01-19T02:06:00.305Z,8.48
2023-01-19T02:09:06.507Z,7.18
2023-01-19T02:11:52.873Z,8.90
2023-01-19T02:14:19.969Z,6.50
2023-01-19T02:16:47.302Z,5.57
2023-01-19T02:19:25.057Z,7.20
2023-01-19T02:22:11.966Z,6.25
2023-01-19T02:24:39.113Z,6.95
2023-01-19T02:27:07.932Z,5.30
2023-01-19T02:29:35.409Z,7.80
2023-01-19T02:32:03.180Z,6.30
2023-01-19T02:34:30.579Z,4.13
2023-01-19T02:37:03.407Z,3.67
2023-01-19T02:39:35.374Z,3.00
2023-01-19T02:42:17.291Z,4.80
2023-01-19T02:44:48.936Z,3.72
2023-01-19T02:47:16.334Z,3.60
2023-01-19T02:49:43.406Z,3.92
2023-01-19T02:52:18.016Z,4.00
2023-01-19T02:55:12.757Z,3.58
2023-01-19T02:58:04.607Z,4.43
2023-01-19T03:00:57.491Z,6.15
2023-01-19T03:03:24.282Z,4.40
2023-01-19T03:06:01.598Z,2.42
2023-01-19T03:08:39.555Z,2.90
2023-01-19T03:11:10.274Z,2.55
2023-01-19T03:13:54.220Z,3.03
2023-01-19T03:16:29.753Z,2.80
2023-01-19T03:19:08.209Z,2.67
2023-01-19T03:21:39.159Z,2.90
2023-01-19T03:24:08.521Z,1.60
2023-01-19T03:26:44.062Z,1.90
2023-01-19T03:29:13.718Z,2.67
2023-01-19T03:31:45.644Z,2.45
2023-01-19T03:34:15.399Z,4.85
2023-01-19T03:37:01.926Z,1.88
2023-01-19T03:39:29.161Z,2.25
2023-01-19T03:42:05.033Z,3.10
2023-01-19T03:44:37.953Z,2.38
2023-01-19T03:47:07.425Z,2.38
2023-01-19T03:49:36.293Z,3.10
2023-01-19T03:52:04.344Z,2.33
2023-01-19T03:54:31.936Z,2.38
2023-01-19T03:56:58.976Z,2.45
2023-01-19T03:59:25.872Z,2.35
2023-01-19T04:01:53.013Z,3.17
2023-01-19T04:04:19.788Z,3.03
2023-01-19T04:06:46.889Z,2.13
2023-01-19T04:09:13.732Z,1.52
2023-01-19T04:11:40.777Z,2.03
2023-01-19T04:14:07.508Z,1.63
2023-01-19T04:16:34.634Z,1.80
2023-01-19T04:19:01.411Z,1.55
2023-01-19T04:21:28.441Z,2.90
2023-01-19T04:23:55.176Z,2.15
2023-01-19T04:26:22.420Z,1.63
2023-01-19T04:28:49.185Z,1.67
2023-01-19T04:31:16.372Z,2.30
2023-01-19T04:33:43.177Z,2.38
2023-01-19T04:36:10.297Z,1.60
2023-01-19T04:38:37.146Z,1.58
2023-01-19T04:41:04.368Z,1.88
2023-01-19T04:43:31.112Z,1.42
2023-01-19T04:45:59.070Z,1.13
2023-01-19T04:48:25.948Z,1.65
2023-01-19T04:50:53.013Z,2.25
2023-01-19T04:53:19.834Z,1.48
2023-01-19T04:55:46.914Z,1.23
2023-01-19T04:58:13.976Z,1.20
2023-01-19T05:00:41.167Z,0.77
2023-01-19T05:03:07.972Z,1.55
2023-01-19T05:05:35.117Z,1.05
2023-01-19T05:08:01.858Z,1.83
2023-01-19T05:10:28.920Z,0.68
2023-01-19T05:12:55.837Z,0.82
2023-01-19T05:15:23.563Z,1.42
2023-01-19T05:17:50.353Z,1.13
2023-01-19T05:20:17.597Z,0.40
2023-01-19T05:22:52.815Z,0.70
2023-01-19T05:25:19.875Z,1.83
2023-01-19T05:27:46.690Z,1.00
2023-01-19T05:30:14.409Z,1.20
2023-01-19T05:32:41.195Z,1.77
2023-01-19T05:35:08.971Z,0.73
2023-01-19T05:37:35.866Z,0.77
2023-01-19T05:40:03.341Z,0.20
2023-01-19T05:42:32.093Z,0.38
2023-01-19T05:45:00.458Z,0.70
2023-01-19T05:47:29.469Z,1.27
2023-01-19T05:49:57.226Z,3.65
2023-01-19T05:52:25.193Z,0.90
2023-01-19T05:54:52.332Z,0.90
2023-01-19T05:57:19.151Z,0.60
2023-01-19T05:59:46.430Z,2.25
2023-01-19T06:02:13.323Z,1.15
2023-01-19T06:04:40.519Z,0.93
2023-01-19T06:07:07.300Z,1.90
2023-01-19T06:09:34.419Z,1.55
2023-01-19T06:12:01.508Z,2.30
2023-01-19T06:14:28.551Z,3.88
2023-01-19T06:16:55.373Z,2.88
2023-01-19T06:19:22.449Z,0.75
2023-01-19T06:21:52.205Z,1.40
2023-01-19T06:24:19.792Z,2.42
2023-01-19T06:26:46.676Z,2.15
2023-01-19T06:29:14.563Z,1.63
2023-01-19T06:31:41.903Z,2.30
2023-01-19T06:34:09.615Z,1.33
2023-01-19T06:36:36.861Z,1.73
2023-01-19T06:39:06.008Z,1.95
2023-01-19T06:41:34.078Z,2.20
2023-01-19T06:44:01.936Z,1.27
2023-01-19T06:46:29.669Z,2.63
2023-01-19T06:48:56.772Z,2.75
2023-01-19T06:51:24.032Z,4.00
2023-01-19T06:53:51.164Z,2.55
2023-01-19T06:56:17.917Z,3.75
2023-01-19T06:58:47.620Z,2.22
2023-01-19T07:01:14.753Z,5.63
2023-01-19T07:03:41.990Z,2.35
2023-01-19T07:06:09.151Z,3.60
2023-01-19T07:08:37.301Z,1.38
2023-01-19T07:11:26.057Z,2.72
2023-01-19T07:13:56.310Z,2.38
2023-01-19T07:16:23.467Z,2.72
2023-01-19T07:18:51.331Z,2.90
2023-01-19T07:21:19.230Z,4.40
2023-01-19T07:23:50.599Z,4.53
2023-01-19T07:26:21.636Z,2.42
2023-01-19T07:28:49.051Z,4.30
2023-01-19T07:31:16.548Z,2.95
2023-01-19T07:33:44.254Z,5.22
2023-01-19T07:36:11.522Z,5.05
2023-01-19T07:38:38.601Z,3.83
2023-01-19T07:41:08.022Z,4.63
2023-01-19T07:43:35.471Z,5.75
2023-01-19T07:46:04.017Z,3.28
2023-01-19T07:48:31.200Z,4.43
2023-01-19T07:51:05.641Z,6.45
2023-01-19T07:53:33.059Z,5.45
2023-01-19T07:56:00.200Z,5.43
2023-01-19T07:58:27.703Z,4.65
2023-01-19T08:00:54.750Z,5.72
2023-01-19T08:03:21.902Z,6.40
2023-01-19T08:05:52.783Z,4.07
2023-01-19T08:08:20.292Z,8.85
2023-01-19T08:10:50.382Z,6.35
2023-01-19T08:13:17.862Z,5.72
2023-01-19T08:15:44.878Z,4.28
2023-01-19T08:18:12.039Z,5.13
2023-01-19T08:20:38.877Z,5.95
2023-01-19T08:23:05.950Z,6.60
2023-01-19T08:25:33.970Z,9.48
2023-01-19T08:28:05.634Z,11.75
2023-01-19T08:30:33.321Z,8.95
2023-01-19T08:33:08.326Z,8.23
2023-01-19T08:35:37.649Z,7.95
2023-01-19T08:38:05.969Z,8.40
2023-01-19T08:40:34.908Z,9.90
2023-01-19T08:43:05.782Z,9.35
2023-01-19T08:45:32.893Z,9.18
2023-01-19T08:48:00.790Z,8.40
2023-01-19T08:50:32.133Z,7.85
2023-01-19T08:53:01.289Z,8.43
2023-01-19T08:55:30.025Z,9.18
2023-01-19T08:58:00.156Z,7.82
2023-01-19T09:00:27.887Z,8.82
2023-01-19T09:02:56.592Z,9.73
2023-01-19T09:05:24.044Z,6.53
2023-01-19T09:07:54.196Z,11.13
2023-01-19T09:10:20.986Z,8.95
2023-01-19T09:12:48.136Z,10.43
2023-01-19T09:15:14.948Z,8.15
2023-01-19T09:17:42.430Z,9.05
2023-01-19T09:20:09.891Z,9.15
2023-01-19T09:22:37.163Z,8.80
2023-01-19T09:25:04.393Z,10.98
2023-01-19T09:27:31.504Z,10.27
2023-01-19T09:29:58.789Z,9.00
2023-01-19T09:32:26.001Z,9.82
2023-01-19T09:34:53.966Z,12.35
2023-01-19T09:37:21.023Z,11.77
2023-01-19T09:39:47.836Z,12.60
2023-01-19T09:42:29.167Z,12.15
2023-01-19T09:44:55.979Z,13.88
2023-01-19T09:47:27.247Z,15.82
2023-01-19T09:50:01.249Z,12.65
2023-01-19T09:52:30.748Z,15.40
2023-01-19T09:54:58.987Z,15.90
2023-01-19T09:57:27.724Z,14.85
2023-01-19T09:59:59.722Z,16.48
2023-01-19T10:02:36.336Z,18.88
2023-01-19T10:05:26.544Z,18.90
2023-01-19T10:08:15.453Z,13.95
2023-01-19T10:10:47.980Z,18.20
2023-01-19T10:13:17.725Z,18.85
2023-01-19T10:16:14.468Z,20.02
2023-01-19T10:18:47.858Z,18.20
2023-01-19T10:21:28.276Z,22.73
2023-01-19T10:24:18.715Z,17.15
2023-01-19T10:26:53.254Z,21.30
2023-01-19T10:29:37.796Z,21.65
2023-01-19T10:32:21.322Z,18.65
2023-01-19T10:34:50.070Z,23.40
2023-01-19T10:37:31.811Z,16.65
2023-01-19T10:40:09.519Z,21.00
2023-01-19T10:42:38.385Z,22.10
2023-01-19T10:45:16.270Z,22.58
2023-01-19T10:47:45.117Z,18.08
2023-01-19T10:50:28.748Z,18.27
2023-01-19T10:52:59.375Z,19.00
2023-01-19T10:55:30.572Z,19.92
2023-01-19T10:57:59.097Z,17.25
2023-01-19T11:00:32.224Z,17.13
2023-01-19T11:02:59.626Z,13.57
2023-01-19T11:05:30.326Z,13.85
2023-01-19T11:07:57.596Z,17.77
2023-01-19T11:10:30.033Z,17.92
2023-01-19T11:13:02.103Z,17.60
2023-01-19T11:15:44.331Z,17.10
2023-01-19T11:18:30.445Z,19.60
2023-01-19T11:21:10.293Z,17.13
2023-01-19T11:23:43.149Z,15.43
2023-01-19T11:26:26.420Z,20.95
2023-01-19T11:28:56.050Z,18.48
2023-01-19T11:31:29.148Z,14.02
2023-01-19T11:34:17.268Z,13.70
2023-01-19T11:36:56.637Z,12.25
2023-01-19T11:39:26.589Z,13.20
2023-01-19T11:42:01.515Z,15.68
2023-01-19T11:44:30.605Z,19.95
2023-01-19T11:47:03.452Z,16.77
2023-01-19T11:49:45.471Z,24.30
2023-01-19T11:52:24.048Z,17.45
2023-01-19T11:55:14.600Z,21.00
2023-01-19T11:57:50.921Z,19.10
2023-01-19T12:00:38.452Z,20.52
2023-01-19T12:03:17.661Z,21.67
2023-01-19T12:05:49.980Z,21.42
2023-01-19T12:08:24.440Z,23.17
2023-01-19T12:10:54.224Z,20.40
2023-01-19T12:13:26.229Z,23.63
2023-01-19T12:16:23.548Z,20.20
2023-01-19T12:19:01.333Z,20.98
2023-01-19T12:21:28.655Z,17.65
2023-01-19T12:24:16.394Z,20.45
2023-01-19T12:26:54.237Z,20.90
2023-01-19T12:29:24.751Z,20.08
2023-01-19T12:32:13.312Z,24.23
2023-01-19T12:34:47.237Z,24.30
2023-01-19T12:37:43.013Z,22.40
2023-01-19T12:40:23.703Z,19.70
2023-01-19T12:42:58.846Z,17.83
2023-01-19T12:45:32.010Z,20.83
2023-01-19T12:48:01.975Z,21.50
2023-01-19T12:50:38.090Z,21.92
2023-01-19T12:53:15.903Z,16.98
2023-01-19T12:55:46.778Z,18.73
2023-01-19T12:58:21.679Z,19.50
2023-01-19T13:00:51.870Z,20.50
2023-01-19T13:03:18.633Z,20.08
2023-01-19T13:05:56.451Z,24.92
2023-01-19T13:08:29.920Z,13.70
2023-01-19T13:13:36.461Z,17.77
2023-01-19T13:16:18.845Z,19.88
2023-01-19T13:18:57.675Z,18.17
2023-01-19T13:21:30.667Z,17.98
2023-01-19T13:24:00.476Z,19.85
2023-01-19T13:26:30.932Z,13.90
2023-01-19T13:29:05.817Z,18.45
2023-01-19T13:31:37.476Z,15.48
2023-01-19T13:34:11.630Z,16.60
2023-01-19T13:36:44.759Z,17.23
2023-01-19T13:39:18.515Z,14.60
2023-01-19T13:41:47.096Z,17.55
2023-01-19T13:44:36.377Z,17.02
2023-01-19T13:47:04.592Z,19.27
2023-01-19T13:49:35.986Z,13.55
2023-01-19T13:52:19.750Z,21.08
2023-01-19T13:54:57.953Z,14.90
2023-01-19T13:57:41.184Z,16.02
2023-01-19T14:00:16.993Z,19.23
2023-01-19T14:03:23.897Z,18.17
2023-01-19T14:05:52.749Z,18.05
2023-01-19T14:08:21.386Z,18.95
2023-01-19T14:10:53.912Z,19.35
2023-01-19T14:13:29.864Z,19.23
2023-01-19T14:16:04.719Z,21.50
2023-01-19T14:18:33.857Z,22.00
2023-01-19T14:21:15.052Z,21.25
2023-01-19T14:23:55.095Z,21.92
2023-01-19T14:26:42.978Z,23.42
2023-01-19T14:29:09.976Z,24.67
2023-01-19T14:31:48.997Z,22.70
2023-01-19T14:34:36.395Z,24.33
2023-01-19T14:37:06.391Z,24.20
2023-01-19T14:39:36.066Z,28.08
2023-01-19T14:42:06.826Z,27.83
2023-01-19T14:44:36.113Z,26.50
2023-01-19T14:47:04.744Z,19.33
2023-01-19T14:49:35.656Z,22.38
2023-01-19T14:52:20.777Z,24.20
2023-01-19T14:54:48.866Z,21.88
2023-01-19T14:57:15.753Z,21.17
2023-01-19T14:59:48.284Z,21.23
2023-01-19T15:02:15.761Z,20.00
2023-01-19T15:04:42.913Z,25.73
2023-01-19T15:07:18.177Z,22.55
2023-01-19T15:09:46.912Z,22.20
2023-01-19T15:12:17.378Z,26.70
2023-01-19T15:14:45.445Z,19.85
2023-01-19T15:17:25.251Z,23.08
2023-01-19T15:19:54.091Z,23.90
2023-01-19T15:22:24.398Z,28.92
2023-01-19T15:24:51.437Z,26.95
2023-01-19T15:27:18.279Z,25.42
2023-01-19T15:29:46.110Z,23.10
2023-01-19T15:32:14.697Z,23.95
2023-01-19T15:34:42.143Z,27.48
2023-01-19T15:37:08.949Z,27.42
2023-01-19T15:39:36.184Z,26.30
2023-01-19T15:42:03.325Z,30.80
2023-01-19T15:44:30.589Z,23.85
2023-01-19T15:46:57.598Z,26.42
2023-01-19T15:49:24.870Z,24.60
2023-01-19T15:51:51.902Z,23.45
2023-01-19T15:54:19.448Z,23.77
2023-01-19T15:56:46.304Z,27.83
2023-01-19T15:59:13.460Z,23.58
2023-01-19T16:01:41.066Z,28.02
2023-01-19T16:04:11.012Z,28.38
2023-01-19T16:06:38.114Z,28.17
2023-01-19T16:09:05.446Z,25.67
2023-01-19T16:11:34.601Z,30.42
2023-01-19T16:14:01.855Z,32.38
2023-01-19T16:16:29.514Z,27.92
2023-01-19T16:18:57.340Z,32.13
2023-01-19T16:21:24.572Z,26.10
2023-01-19T16:23:52.013Z,25.08
2023-01-19T16:26:29.507Z,36.55
2023-01-19T16:29:02.361Z,25.35
2023-01-19T16:31:29.766Z,26.33
2023-01-19T16:33:56.945Z,26.17
2023-01-19T16:36:28.862Z,27.67
2023-01-19T16:38:59.957Z,27.17
2023-01-19T16:41:27.664Z,30.70
2023-01-19T16:43:57.377Z,29.15
2023-01-19T16:46:30.451Z,31.50
2023-01-19T16:49:17.357Z,22.98
2023-01-19T16:51:44.291Z,31.25
2023-01-19T16:54:16.780Z,28.23
2023-01-19T16:56:44.042Z,24.88
2023-01-19T16:59:13.006Z,27.65
2023-01-19T17:01:40.058Z,27.38
2023-01-19T17:04:07.659Z,25.92
2023-01-19T17:06:34.708Z,21.33
2023-01-19T17:09:02.052Z,19.45
2023-01-19T17:11:31.033Z,25.77
2023-01-19T17:14:00.276Z,23.60
2023-01-19T17:16:28.879Z,24.58
2023-01-19T17:18:58.313Z,23.33
2023-01-19T17:21:25.701Z,29.50
2023-01-19T17:23:54.459Z,22.80
2023-01-19T17:26:22.365Z,21.23
2023-01-19T17:28:49.430Z,22.98
2023-01-19T17:31:19.613Z,26.77
2023-01-19T17:33:49.275Z,19.52
2023-01-19T17:36:22.552Z,21.88
2023-01-19T17:38:50.265Z,19.23
2023-01-19T17:41:19.992Z,22.45
2023-01-19T17:43:47.650Z,27.40
2023-01-19T17:46:14.495Z,31.02
2023-01-19T17:48:41.629Z,21.77
2023-01-19T17:51:12.946Z,24.02
2023-01-19T17:53:41.983Z,26.67
2023-01-19T17:56:14.332Z,21.73
2023-01-19T17:58:41.437Z,23.58
2023-01-19T18:01:15.946Z,24.50
2023-01-19T18:03:43.345Z,24.90
2023-01-19T18:06:10.248Z,25.60
2023-01-19T18:08:39.712Z,20.00
2023-01-19T18:11:07.376Z,25.02
2023-01-19T18:13:34.992Z,23.95
2023-01-19T18:16:04.209Z,24.15
2023-01-19T18:18:31.997Z,24.02
2023-01-19T18:21:00.228Z,22.02
2023-01-19T18:23:28.425Z,23.05
2023-01-19T18:26:02.947Z,19.58
2023-01-19T18:28:31.152Z,24.90
2023-01-19T18:30:58.251Z,22.88
2023-01-19T18:33:26.664Z,21.85
2023-01-19T18:35:54.524Z,25.52
2023-01-19T18:38:24.616Z,22.38
2023-01-19T18:41:12.745Z,22.58
2023-01-19T18:43:40.151Z,21.52
2023-01-19T18:46:07.424Z,20.23
2023-01-19T18:48:35.256Z,19.70
2023-01-19T18:51:13.200Z,22.63
2023-01-19T18:53:40.737Z,22.40
2023-01-19T18:56:08.498Z,23.45
2023-01-19T18:58:38.168Z,20.52
2023-01-19T19:01:16.442Z,19.10
2023-01-19T19:03:43.531Z,21.75
2023-01-19T19:06:10.323Z,22.25
2023-01-19T19:08:37.499Z,18.45
2023-01-19T19:11:08.340Z,26.38
2023-01-19T19:13:38.232Z,18.70
2023-01-19T19:16:07.146Z,22.38
2023-01-19T19:18:35.360Z,21.83
2023-01-19T19:21:07.587Z,22.15
2023-01-19T19:23:35.284Z,24.33
2023-01-19T19:26:07.428Z,19.58
2023-01-19T19:28:36.760Z,22.88
2023-01-19T19:31:15.490Z,20.30
2023-01-19T19:33:42.938Z,22.33
2023-01-19T19:36:10.413Z,23.67
2023-01-19T19:38:37.787Z,22.60
2023-01-19T19:41:08.766Z,28.58
2023-01-19T19:43:36.492Z,26.00
2023-01-19T19:46:09.597Z,24.27
2023-01-19T19:48:39.244Z,21.52
2023-01-19T19:51:19.678Z,28.33
2023-01-19T19:53:48.936Z,20.45
2023-01-19T19:56:19.867Z,23.77
2023-01-19T19:58:47.849Z,24.17
2023-01-19T20:01:25.922Z,23.25
2023-01-19T20:03:58.784Z,23.13
2023-01-19T20:06:27.132Z,24.13
2023-01-19T20:08:56.218Z,21.50
2023-01-19T20:11:27.696Z,23.35
2023-01-19T20:13:55.123Z,28.05
2023-01-19T20:16:23.204Z,20.92
2023-01-19T20:18:54.000Z,23.90
2023-01-19T20:21:25.283Z,24.80
2023-01-19T20:23:53.644Z,25.25
2023-01-19T20:26:25.209Z,16.63
2023-01-19T20:28:53.795Z,31.02
2023-01-19T20:31:26.922Z,25.15
2023-01-19T20:33:56.304Z,20.60
2023-01-19T20:36:24.611Z,23.55
2023-01-19T20:38:53.357Z,19.85
2023-01-19T20:41:20.724Z,24.50
2023-01-19T20:43:47.902Z,28.75
2023-01-19T20:46:14.953Z,20.73
2023-01-19T20:48:42.038Z,30.58
2023-01-19T20:51:11.756Z,24.67
2023-01-19T20:53:40.736Z,16.70
2023-01-19T20:56:11.579Z,21.23
2023-01-19T20:58:39.246Z,22.40
2023-01-19T21:01:14.219Z,21.05
2023-01-19T21:03:42.000Z,25.00
2023-01-19T21:06:09.527Z,24.40
2023-01-19T21:08:37.397Z,24.70
2023-01-19T21:11:04.984Z,25.48
2023-01-19T21:13:32.157Z,24.83
2023-01-19T21:16:00.007Z,34.63
2023-01-19T21:18:28.013Z,28.65
2023-01-19T21:20:57.409Z,22.02
2023-01-19T21:23:26.370Z,19.17
2023-01-19T21:25:55.686Z,26.15
2023-01-19T21:28:23.739Z,21.30
2023-01-19T21:30:51.756Z,22.25
2023-01-19T21:33:19.791Z,23.58
2023-01-19T21:36:04.479Z,22.67
2023-01-19T21:38:32.010Z,26.02
2023-01-19T21:40:58.901Z,20.23
2023-01-19T21:43:26.611Z,20.95
2023-01-19T21:45:53.380Z,23.35
2023-01-19T21:48:20.549Z,23.38
2023-01-19T21:50:57.065Z,22.77
2023-01-19T21:53:24.140Z,25.30
2023-01-19T21:55:50.913Z,21.50
2023-01-19T21:58:18.016Z,21.13
2023-01-19T22:00:45.442Z,21.85
2023-01-19T22:03:12.629Z,24.70
2023-01-19T22:05:39.457Z,23.30
2023-01-19T22:08:06.695Z,24.58
2023-01-19T22:10:37.472Z,22.23
2023-01-19T22:13:06.634Z,21.48
2023-01-19T22:15:33.761Z,22.30
2023-01-19T22:18:01.097Z,22.85
2023-01-19T22:20:28.336Z,19.67
2023-01-19T22:22:56.336Z,26.42
2023-01-19T22:25:27.858Z,24.13
2023-01-19T22:27:55.786Z,27.40
2023-01-19T22:30:22.686Z,21.23
2023-01-19T22:32:49.785Z,24.38
2023-01-19T22:35:16.660Z,21.73
2023-01-19T22:37:43.729Z,21.25
2023-01-19T22:40:11.247Z,21.05
2023-01-19T22:42:38.329Z,20.27
2023-01-19T22:45:05.496Z,25.35
2023-01-19T22:47:32.527Z,23.40
2023-01-19T22:49:59.307Z,21.15
2023-01-19T22:52:26.373Z,21.42
2023-01-19T22:54:56.295Z,22.23
2023-01-19T22:57:23.366Z,26.83
2023-01-19T22:59:50.157Z,21.50
2023-01-19T23:02:18.627Z,20.63
2023-01-19T23:04:47.344Z,19.95
2023-01-19T23:07:14.447Z,19.85
2023-01-19T23:09:41.331Z,22.23
2023-01-19T23:12:08.376Z,21.42
2023-01-19T23:14:36.228Z,20.45
2023-01-19T23:17:03.306Z,21.08
2023-01-19T23:19:30.097Z,21.20
2023-01-19T23:21:57.260Z,21.17
2023-01-19T23:24:24.075Z,20.38
2023-01-19T23:26:51.174Z,16.60
2023-01-19T23:29:18.206Z,23.13
2023-01-19T23:31:47.605Z,21.67
2023-01-19T23:34:15.091Z,17.50
2023-01-19T23:36:43.066Z,20.73
2023-01-19T23:39:18.759Z,20.73
2023-01-19T23:41:46.064Z,20.75
2023-01-19T23:44:13.170Z,20.85
2023-01-19T23:46:40.341Z,21.42
2023-01-19T23:49:07.114Z,18.60
2023-01-19T23:51:34.582Z,19.27
2023-01-19T23:54:01.493Z,22.27
2023-01-19T23:56:33.993Z,19.08
2023-01-19T23:59:07.065Z,14.60
